sensor_id;sensor_type;location;lat;lon;timestamp;pressure;altitude;pressure_sealevel;temperature;humidity
21588;BME280;10956;48.878;13.316;2023-08-31T00:00:00;93630.34;;;12.28;100.00
21588;BME280;10956;48.878;13.316;2023-08-31T00:02:25;93635.56;;;12.33;100.00
21588;BME280;10956;48.878;13.316;2023-08-31T00:04:52;93635.56;;;12.33;100.00
21588;BME280;10956;48.878;13.316;2023-08-31T00:07:20;93633.50;;;12.30;100.00
21588;BME280;10956;48.878;13.316;2023-08-31T00:09:46;93640.50;;;12.21;100.00
21588;BME280;10956;48.878;13.316;2023-08-31T00:12:13;93641.66;;;12.15;100.00
21588;BME280;10956;48.878;13.316;2023-08-31T00:14:38;93644.50;;;12.18;100.00
21588;BME280;10956;48.878;13.316;2023-08-31T00:17:04;93640.09;;;12.14;100.00
21588;BME280;10956;48.878;13.316;2023-08-31T00:19:30;93637.94;;;12.16;100.00
21588;BME280;10956;48.878;13.316;2023-08-31T00:21:55;93630.44;;;12.23;100.00
21588;BME280;10956;48.878;13.316;2023-08-31T00:24:21;93625.47;;;12.35;100.00
21588;BME280;10956;48.878;13.316;2023-08-31T00:26:48;93630.69;;;12.40;100.00
21588;BME280;10956;48.878;13.316;2023-08-31T00:29:16;93633.41;;;12.35;100.00
21588;BME280;10956;48.878;13.316;2023-08-31T00:31:41;93635.06;;;12.31;100.00
21588;BME280;10956;48.878;13.316;2023-08-31T00:34:09;93635.63;;;12.28;100.00
21588;BME280;10956;48.878;13.316;2023-08-31T00:36:43;93632.50;;;12.26;100.00
21588;BME280;10956;48.878;13.316;2023-08-31T00:39:08;93641.00;;;12.23;100.00
21588;BME280;10956;48.878;13.316;2023-08-31T00:41:35;93639.84;;;12.29;100.00
21588;BME280;10956;48.878;13.316;2023-08-31T00:44:01;93629.84;;;12.26;100.00
21588;BME280;10956;48.878;13.316;2023-08-31T00:46:27;93641.00;;;12.23;100.00
21588;BME280;10956;48.878;13.316;2023-08-31T00:48:54;93636.41;;;12.28;100.00
21588;BME280;10956;48.878;13.316;2023-08-31T00:51:20;93647.78;;;12.29;100.00
21588;BME280;10956;48.878;13.316;2023-08-31T00:53:47;93638.00;;;12.29;100.00
21588;BME280;10956;48.878;13.316;2023-08-31T00:56:13;93640.66;;;12.43;100.00
21588;BME280;10956;48.878;13.316;2023-08-31T00:58:38;93648.75;;;12.33;100.00
21588;BME280;10956;48.878;13.316;2023-08-31T01:01:14;93652.41;;;12.37;100.00
21588;BME280;10956;48.878;13.316;2023-08-31T01:06:36;93651.91;;;12.35;100.00
21588;BME280;10956;48.878;13.316;2023-08-31T01:10:02;93650.91;;;12.31;100.00
21588;BME280;10956;48.878;13.316;2023-08-31T01:12:36;93657.34;;;12.25;100.00
21588;BME280;10956;48.878;13.316;2023-08-31T01:15:06;93646.94;;;12.15;100.00
21588;BME280;10956;48.878;13.316;2023-08-31T01:17:52;93649.94;;;12.08;100.00
21588;BME280;10956;48.878;13.316;2023-08-31T01:20:38;93648.16;;;12.04;100.00
21588;BME280;10956;48.878;13.316;2023-08-31T01:23:16;93645.69;;;11.93;100.00
21588;BME280;10956;48.878;13.316;2023-08-31T01:25:41;93643.31;;;11.92;100.00
21588;BME280;10956;48.878;13.316;2023-08-31T01:28:08;93654.25;;;11.85;100.00
21588;BME280;10956;48.878;13.316;2023-08-31T01:30:34;93647.47;;;11.79;100.00
21588;BME280;10956;48.878;13.316;2023-08-31T01:32:59;93651.44;;;11.77;100.00
21588;BME280;10956;48.878;13.316;2023-08-31T01:35:26;93652.28;;;11.72;100.00
21588;BME280;10956;48.878;13.316;2023-08-31T01:37:59;93662.13;;;11.67;100.00
21588;BME280;10956;48.878;13.316;2023-08-31T01:42:51;93664.63;;;11.58;100.00
21588;BME280;10956;48.878;13.316;2023-08-31T01:45:22;93662.78;;;11.58;100.00
21588;BME280;10956;48.878;13.316;2023-08-31T01:47:48;93672.13;;;11.70;100.00
21588;BME280;10956;48.878;13.316;2023-08-31T01:50:14;93668.81;;;11.83;100.00
21588;BME280;10956;48.878;13.316;2023-08-31T01:52:39;93667.16;;;11.87;100.00
21588;BME280;10956;48.878;13.316;2023-08-31T01:55:05;93673.81;;;11.84;100.00
21588;BME280;10956;48.878;13.316;2023-08-31T01:57:32;93670.94;;;11.81;100.00
21588;BME280;10956;48.878;13.316;2023-08-31T01:59:58;93665.19;;;11.74;100.00
21588;BME280;10956;48.878;13.316;2023-08-31T02:02:23;93664.50;;;11.68;100.00
21588;BME280;10956;48.878;13.316;2023-08-31T02:04:48;93665.28;;;11.69;100.00
21588;BME280;10956;48.878;13.316;2023-08-31T02:07:15;93668.56;;;11.60;100.00
21588;BME280;10956;48.878;13.316;2023-08-31T02:09:41;93668.84;;;11.59;100.00
21588;BME280;10956;48.878;13.316;2023-08-31T02:12:06;93657.34;;;11.50;100.00
21588;BME280;10956;48.878;13.316;2023-08-31T02:14:34;93655.34;;;11.42;100.00
21588;BME280;10956;48.878;13.316;2023-08-31T02:17:00;93653.34;;;11.33;100.00
21588;BME280;10956;48.878;13.316;2023-08-31T02:19:25;93661.81;;;11.30;100.00
21588;BME280;10956;48.878;13.316;2023-08-31T02:21:51;93661.09;;;11.25;100.00
21588;BME280;10956;48.878;13.316;2023-08-31T02:24:16;93666.69;;;11.18;100.00
21588;BME280;10956;48.878;13.316;2023-08-31T02:26:41;93668.84;;;11.16;100.00
21588;BME280;10956;48.878;13.316;2023-08-31T02:29:07;93669.41;;;11.13;100.00
21588;BME280;10956;48.878;13.316;2023-08-31T02:31:32;93666.81;;;11.08;100.00
21588;BME280;10956;48.878;13.316;2023-08-31T02:33:58;93666.81;;;11.08;100.00
21588;BME280;10956;48.878;13.316;2023-08-31T02:36:23;93657.41;;;11.02;100.00
21588;BME280;10956;48.878;13.316;2023-08-31T02:38:48;93663.78;;;10.96;100.00
21588;BME280;10956;48.878;13.316;2023-08-31T02:41:15;93660.66;;;10.94;100.00
21588;BME280;10956;48.878;13.316;2023-08-31T02:43:42;93674.09;;;10.92;100.00
21588;BME280;10956;48.878;13.316;2023-08-31T02:46:07;93680.72;;;10.90;100.00
21588;BME280;10956;48.878;13.316;2023-08-31T02:48:33;93690.72;;;10.93;100.00
21588;BME280;10956;48.878;13.316;2023-08-31T02:50:59;93689.59;;;10.99;100.00
21588;BME280;10956;48.878;13.316;2023-08-31T02:53:30;93682.59;;;11.13;100.00
21588;BME280;10956;48.878;13.316;2023-08-31T02:55:56;93690.88;;;11.25;100.00
21588;BME280;10956;48.878;13.316;2023-08-31T02:58:21;93688.91;;;11.36;100.00
21588;BME280;10956;48.878;13.316;2023-08-31T03:00:47;93685.41;;;11.41;100.00
21588;BME280;10956;48.878;13.316;2023-08-31T03:03:17;93683.63;;;11.36;100.00
21588;BME280;10956;48.878;13.316;2023-08-31T03:05:43;93692.72;;;11.25;100.00
21588;BME280;10956;48.878;13.316;2023-08-31T03:08:08;93688.25;;;11.25;100.00
21588;BME280;10956;48.878;13.316;2023-08-31T03:10:34;93684.47;;;11.31;100.00
21588;BME280;10956;48.878;13.316;2023-08-31T03:13:00;93690.81;;;11.30;100.00
21588;BME280;10956;48.878;13.316;2023-08-31T03:15:25;93695.25;;;11.35;100.00
21588;BME280;10956;48.878;13.316;2023-08-31T03:17:51;93694.41;;;11.40;100.00
21588;BME280;10956;48.878;13.316;2023-08-31T03:20:16;93694.84;;;11.47;100.00
21588;BME280;10956;48.878;13.316;2023-08-31T03:22:41;93694.84;;;11.47;100.00
21588;BME280;10956;48.878;13.316;2023-08-31T03:25:08;93696.13;;;11.49;100.00
21588;BME280;10956;48.878;13.316;2023-08-31T03:27:33;93692.16;;;11.52;100.00
21588;BME280;10956;48.878;13.316;2023-08-31T03:29:58;93695.28;;;11.54;100.00
21588;BME280;10956;48.878;13.316;2023-08-31T03:32:24;93702.91;;;11.55;100.00
21588;BME280;10956;48.878;13.316;2023-08-31T03:34:49;93700.44;;;11.64;100.00
21588;BME280;10956;48.878;13.316;2023-08-31T03:37:15;93709.91;;;11.65;100.00
21588;BME280;10956;48.878;13.316;2023-08-31T03:39:41;93707.72;;;11.72;100.00
21588;BME280;10956;48.878;13.316;2023-08-31T03:42:09;93711.91;;;11.78;100.00
21588;BME280;10956;48.878;13.316;2023-08-31T03:44:35;93709.19;;;11.83;100.00
21588;BME280;10956;48.878;13.316;2023-08-31T03:47:02;93716.03;;;11.84;100.00
21588;BME280;10956;48.878;13.316;2023-08-31T03:49:27;93704.91;;;11.87;100.00
21588;BME280;10956;48.878;13.316;2023-08-31T03:51:53;93705.13;;;11.91;100.00
21588;BME280;10956;48.878;13.316;2023-08-31T03:54:19;93711.19;;;11.91;100.00
21588;BME280;10956;48.878;13.316;2023-08-31T03:56:45;93718.31;;;11.91;100.00
21588;BME280;10956;48.878;13.316;2023-08-31T03:59:11;93721.19;;;11.94;100.00
21588;BME280;10956;48.878;13.316;2023-08-31T04:01:37;93710.63;;;11.94;100.00
21588;BME280;10956;48.878;13.316;2023-08-31T04:04:03;93714.31;;;11.93;100.00
21588;BME280;10956;48.878;13.316;2023-08-31T04:06:29;93714.81;;;11.95;100.00
21588;BME280;10956;48.878;13.316;2023-08-31T04:08:54;93720.75;;;11.87;100.00
21588;BME280;10956;48.878;13.316;2023-08-31T04:11:20;93729.75;;;11.86;100.00
21588;BME280;10956;48.878;13.316;2023-08-31T04:13:45;93743.66;;;11.92;100.00
21588;BME280;10956;48.878;13.316;2023-08-31T04:16:11;93735.66;;;11.97;100.00
21588;BME280;10956;48.878;13.316;2023-08-31T04:18:36;93737.44;;;12.02;100.00
21588;BME280;10956;48.878;13.316;2023-08-31T04:21:02;93735.31;;;12.04;100.00
21588;BME280;10956;48.878;13.316;2023-08-31T04:23:28;93734.16;;;12.10;100.00
21588;BME280;10956;48.878;13.316;2023-08-31T04:25:54;93729.47;;;12.07;100.00
21588;BME280;10956;48.878;13.316;2023-08-31T04:28:20;93736.31;;;12.08;100.00
21588;BME280;10956;48.878;13.316;2023-08-31T04:30:45;93730.53;;;12.06;100.00
21588;BME280;10956;48.878;13.316;2023-08-31T04:33:10;93731.03;;;12.08;100.00
21588;BME280;10956;48.878;13.316;2023-08-31T04:35:36;93738.09;;;12.12;100.00
21588;BME280;10956;48.878;13.316;2023-08-31T04:38:02;93734.88;;;12.15;100.00
21588;BME280;10956;48.878;13.316;2023-08-31T04:40:28;93743.81;;;12.19;100.00
21588;BME280;10956;48.878;13.316;2023-08-31T04:42:56;93743.53;;;12.21;100.00
21588;BME280;10956;48.878;13.316;2023-08-31T04:45:21;93744.09;;;12.18;100.00
21588;BME280;10956;48.878;13.316;2023-08-31T04:47:47;93745.59;;;12.24;100.00
21588;BME280;10956;48.878;13.316;2023-08-31T04:50:14;93740.09;;;12.20;100.00
21588;BME280;10956;48.878;13.316;2023-08-31T04:52:39;93745.16;;;12.17;100.00
21588;BME280;10956;48.878;13.316;2023-08-31T04:55:06;93754.38;;;12.19;100.00
21588;BME280;10956;48.878;13.316;2023-08-31T04:57:33;93750.09;;;12.23;100.00
21588;BME280;10956;48.878;13.316;2023-08-31T04:59:58;93759.88;;;12.23;100.00
21588;BME280;10956;48.878;13.316;2023-08-31T05:02:23;93763.00;;;12.25;100.00
21588;BME280;10956;48.878;13.316;2023-08-31T05:04:49;93776.16;;;12.30;100.00
21588;BME280;10956;48.878;13.316;2023-08-31T05:07:14;93772.88;;;12.38;100.00
21588;BME280;10956;48.878;13.316;2023-08-31T05:09:39;93780.94;;;12.47;100.00
21588;BME280;10956;48.878;13.316;2023-08-31T05:12:05;93783.22;;;12.53;100.00
21588;BME280;10956;48.878;13.316;2023-08-31T05:14:32;93783.13;;;12.58;100.00
21588;BME280;10956;48.878;13.316;2023-08-31T05:17:00;93783.47;;;12.71;100.00
21588;BME280;10956;48.878;13.316;2023-08-31T05:19:25;93781.09;;;12.88;100.00
21588;BME280;10956;48.878;13.316;2023-08-31T05:21:51;93790.84;;;13.06;100.00
21588;BME280;10956;48.878;13.316;2023-08-31T05:24:16;93787.66;;;13.23;100.00
21588;BME280;10956;48.878;13.316;2023-08-31T05:26:42;93792.19;;;13.36;100.00
21588;BME280;10956;48.878;13.316;2023-08-31T05:29:07;93798.09;;;13.47;100.00
21588;BME280;10956;48.878;13.316;2023-08-31T05:31:32;93793.97;;;13.54;100.00
21588;BME280;10956;48.878;13.316;2023-08-31T05:33:58;93800.66;;;13.66;100.00
21588;BME280;10956;48.878;13.316;2023-08-31T05:36:23;93803.50;;;13.69;100.00
21588;BME280;10956;48.878;13.316;2023-08-31T05:38:51;93810.06;;;13.72;100.00
21588;BME280;10956;48.878;13.316;2023-08-31T05:41:16;93814.66;;;13.66;100.00
21588;BME280;10956;48.878;13.316;2023-08-31T05:43:42;93807.50;;;13.67;100.00
21588;BME280;10956;48.878;13.316;2023-08-31T05:46:08;93811.25;;;13.79;100.00
21588;BME280;10956;48.878;13.316;2023-08-31T05:48:34;93815.94;;;13.82;100.00
21588;BME280;10956;48.878;13.316;2023-08-31T05:51:00;93814.56;;;13.71;100.00
21588;BME280;10956;48.878;13.316;2023-08-31T05:53:25;93824.88;;;13.59;100.00
21588;BME280;10956;48.878;13.316;2023-08-31T05:55:51;93831.81;;;13.55;100.00
21588;BME280;10956;48.878;13.316;2023-08-31T05:58:16;93834.19;;;13.56;100.00
21588;BME280;10956;48.878;13.316;2023-08-31T06:00:41;93826.53;;;13.82;100.00
21588;BME280;10956;48.878;13.316;2023-08-31T06:03:07;93830.75;;;14.25;100.00
21588;BME280;10956;48.878;13.316;2023-08-31T06:05:33;93822.56;;;14.48;100.00
21588;BME280;10956;48.878;13.316;2023-08-31T06:07:58;93823.53;;;14.52;100.00
21588;BME280;10956;48.878;13.316;2023-08-31T06:10:24;93821.31;;;14.46;100.00
21588;BME280;10956;48.878;13.316;2023-08-31T06:12:50;93821.97;;;14.51;100.00
21588;BME280;10956;48.878;13.316;2023-08-31T06:15:16;93831.41;;;14.44;100.00
21588;BME280;10956;48.878;13.316;2023-08-31T06:17:41;93833.19;;;14.35;100.00
21588;BME280;10956;48.878;13.316;2023-08-31T06:20:07;93843.19;;;14.24;100.00
21588;BME280;10956;48.878;13.316;2023-08-31T06:22:33;93841.84;;;14.13;100.00
21588;BME280;10956;48.878;13.316;2023-08-31T06:24:59;93849.88;;;14.08;100.00
21588;BME280;10956;48.878;13.316;2023-08-31T06:27:25;93845.97;;;13.92;100.00
21588;BME280;10956;48.878;13.316;2023-08-31T06:29:50;93850.69;;;13.95;100.00
21588;BME280;10956;48.878;13.316;2023-08-31T06:32:16;93857.75;;;13.99;100.00
21588;BME280;10956;48.878;13.316;2023-08-31T06:34:42;93854.22;;;14.04;100.00
21588;BME280;10956;48.878;13.316;2023-08-31T06:37:07;93861.84;;;14.05;100.00
21588;BME280;10956;48.878;13.316;2023-08-31T06:39:33;93857.75;;;14.13;100.00
21588;BME280;10956;48.878;13.316;2023-08-31T06:41:59;93862.03;;;14.36;100.00
21588;BME280;10956;48.878;13.316;2023-08-31T06:44:24;93854.88;;;14.50;100.00
21588;BME280;10956;48.878;13.316;2023-08-31T06:46:50;93863.22;;;14.58;100.00
21588;BME280;10956;48.878;13.316;2023-08-31T06:49:15;93870.28;;;14.48;100.00
21588;BME280;10956;48.878;13.316;2023-08-31T06:51:41;93875.50;;;14.53;100.00
21588;BME280;10956;48.878;13.316;2023-08-31T06:54:06;93874.56;;;14.72;100.00
21588;BME280;10956;48.878;13.316;2023-08-31T06:56:33;93879.75;;;14.77;100.00
21588;BME280;10956;48.878;13.316;2023-08-31T06:58:59;93881.13;;;14.74;100.00
21588;BME280;10956;48.878;13.316;2023-08-31T07:01:24;93886.94;;;14.76;100.00
21588;BME280;10956;48.878;13.316;2023-08-31T07:03:49;93882.59;;;14.80;100.00
21588;BME280;10956;48.878;13.316;2023-08-31T07:06:15;93887.06;;;14.94;100.00
21588;BME280;10956;48.878;13.316;2023-08-31T07:08:40;93882.94;;;15.01;100.00
21588;BME280;10956;48.878;13.316;2023-08-31T07:11:07;93890.78;;;15.06;100.00
21588;BME280;10956;48.878;13.316;2023-08-31T07:13:32;93896.00;;;14.98;100.00
21588;BME280;10956;48.878;13.316;2023-08-31T07:15:58;93890.81;;;14.93;100.00
21588;BME280;10956;48.878;13.316;2023-08-31T07:18:23;93889.66;;;14.85;100.00
21588;BME280;10956;48.878;13.316;2023-08-31T07:20:48;93893.16;;;14.94;100.00
21588;BME280;10956;48.878;13.316;2023-08-31T07:23:14;93901.34;;;15.20;100.00
21588;BME280;10956;48.878;13.316;2023-08-31T07:25:39;93909.75;;;15.58;100.00
21588;BME280;10956;48.878;13.316;2023-08-31T07:28:05;93915.72;;;15.95;100.00
21588;BME280;10956;48.878;13.316;2023-08-31T07:30:30;93916.41;;;16.09;100.00
21588;BME280;10956;48.878;13.316;2023-08-31T07:32:56;93913.47;;;16.10;100.00
21588;BME280;10956;48.878;13.316;2023-08-31T07:35:21;93921.41;;;16.02;100.00
21588;BME280;10956;48.878;13.316;2023-08-31T07:37:47;93917.66;;;16.03;100.00
21588;BME280;10956;48.878;13.316;2023-08-31T07:40:12;93925.94;;;16.01;100.00
21588;BME280;10956;48.878;13.316;2023-08-31T07:42:37;93941.09;;;16.01;100.00
21588;BME280;10956;48.878;13.316;2023-08-31T07:45:04;93934.81;;;15.97;100.00
21588;BME280;10956;48.878;13.316;2023-08-31T07:47:30;93935.78;;;16.01;100.00
21588;BME280;10956;48.878;13.316;2023-08-31T07:49:56;93931.03;;;16.29;100.00
21588;BME280;10956;48.878;13.316;2023-08-31T07:52:22;93939.56;;;16.48;100.00
21588;BME280;10956;48.878;13.316;2023-08-31T07:54:48;93940.00;;;16.81;100.00
21588;BME280;10956;48.878;13.316;2023-08-31T07:57:13;93930.78;;;17.04;100.00
21588;BME280;10956;48.878;13.316;2023-08-31T07:59:39;93931.09;;;17.03;100.00
21588;BME280;10956;48.878;13.316;2023-08-31T08:02:06;93939.06;;;16.94;100.00
21588;BME280;10956;48.878;13.316;2023-08-31T08:04:31;93932.97;;;16.85;100.00
21588;BME280;10956;48.878;13.316;2023-08-31T08:06:57;93932.56;;;16.61;100.00
21588;BME280;10956;48.878;13.316;2023-08-31T08:09:22;93939.72;;;16.52;100.00
21588;BME280;10956;48.878;13.316;2023-08-31T08:11:48;93935.34;;;16.56;100.00
21588;BME280;10956;48.878;13.316;2023-08-31T08:14:13;93938.44;;;16.40;100.00
21588;BME280;10956;48.878;13.316;2023-08-31T08:16:41;93946.38;;;16.32;100.00
21588;BME280;10956;48.878;13.316;2023-08-31T08:19:06;93941.50;;;16.25;100.00
21588;BME280;10956;48.878;13.316;2023-08-31T08:21:33;93945.59;;;16.31;100.00
21588;BME280;10956;48.878;13.316;2023-08-31T08:23:58;93950.38;;;16.52;100.00
21588;BME280;10956;48.878;13.316;2023-08-31T08:26:23;93955.47;;;16.79;100.00
21588;BME280;10956;48.878;13.316;2023-08-31T08:28:49;93953.34;;;17.16;100.00
21588;BME280;10956;48.878;13.316;2023-08-31T08:31:14;93961.34;;;17.50;100.00
21588;BME280;10956;48.878;13.316;2023-08-31T08:33:39;93964.81;;;17.68;98.12
21588;BME280;10956;48.878;13.316;2023-08-31T08:36:05;93968.56;;;17.75;95.88
21588;BME280;10956;48.878;13.316;2023-08-31T08:38:31;93978.09;;;17.94;96.57
21588;BME280;10956;48.878;13.316;2023-08-31T08:40:56;93977.19;;;17.72;94.92
21588;BME280;10956;48.878;13.316;2023-08-31T08:43:24;93976.53;;;17.41;96.09
21588;BME280;10956;48.878;13.316;2023-08-31T08:45:51;93978.41;;;17.15;98.00
21588;BME280;10956;48.878;13.316;2023-08-31T08:48:17;93974.59;;;16.81;97.80
21588;BME280;10956;48.878;13.316;2023-08-31T08:50:44;93982.69;;;16.36;99.11
21588;BME280;10956;48.878;13.316;2023-08-31T08:53:10;93987.66;;;15.98;99.22
21588;BME280;10956;48.878;13.316;2023-08-31T08:55:36;93977.03;;;15.76;99.01
21588;BME280;10956;48.878;13.316;2023-08-31T08:58:02;93987.13;;;15.65;100.00
21588;BME280;10956;48.878;13.316;2023-08-31T09:00:31;93993.91;;;15.71;100.00
21588;BME280;10956;48.878;13.316;2023-08-31T09:02:58;94000.91;;;15.67;100.00
21588;BME280;10956;48.878;13.316;2023-08-31T09:05:23;94004.03;;;15.69;100.00
21588;BME280;10956;48.878;13.316;2023-08-31T09:08:06;94010.63;;;15.94;100.00
21588;BME280;10956;48.878;13.316;2023-08-31T09:10:43;94011.25;;;16.22;100.00
21588;BME280;10956;48.878;13.316;2023-08-31T09:13:13;94010.63;;;16.56;100.00
21588;BME280;10956;48.878;13.316;2023-08-31T09:15:46;94007.59;;;16.80;100.00
21588;BME280;10956;48.878;13.316;2023-08-31T09:18:28;94000.91;;;16.91;96.96
21588;BME280;10956;48.878;13.316;2023-08-31T09:20:54;93996.09;;;17.10;96.12
21588;BME280;10956;48.878;13.316;2023-08-31T09:23:22;93995.78;;;17.21;95.01
21588;BME280;10956;48.878;13.316;2023-08-31T09:25:55;94000.66;;;17.27;95.81
21588;BME280;10956;48.878;13.316;2023-08-31T09:28:22;93998.31;;;17.26;96.11
21588;BME280;10956;48.878;13.316;2023-08-31T09:30:49;94005.38;;;17.39;97.25
21588;BME280;10956;48.878;13.316;2023-08-31T09:33:20;94001.03;;;17.78;96.21
21588;BME280;10956;48.878;13.316;2023-08-31T09:35:51;93992.19;;;18.03;94.30
21588;BME280;10956;48.878;13.316;2023-08-31T09:38:17;94000.38;;;17.81;90.55
21588;BME280;10956;48.878;13.316;2023-08-31T09:40:43;94016.84;;;17.74;89.33
21588;BME280;10956;48.878;13.316;2023-08-31T09:43:09;94006.00;;;18.05;88.93
21588;BME280;10956;48.878;13.316;2023-08-31T09:45:35;94012.34;;;18.38;89.50
21588;BME280;10956;48.878;13.316;2023-08-31T09:48:02;94015.31;;;18.46;89.22
21588;BME280;10956;48.878;13.316;2023-08-31T09:50:32;94014.25;;;18.38;86.04
21588;BME280;10956;48.878;13.316;2023-08-31T09:53:03;94021.69;;;17.98;86.44
21588;BME280;10956;48.878;13.316;2023-08-31T09:55:31;94022.47;;;17.55;87.11
21588;BME280;10956;48.878;13.316;2023-08-31T09:57:59;94029.31;;;17.22;88.43
21588;BME280;10956;48.878;13.316;2023-08-31T10:00:29;94030.59;;;16.76;87.15
21588;BME280;10956;48.878;13.316;2023-08-31T10:02:56;94031.38;;;16.45;89.15
21588;BME280;10956;48.878;13.316;2023-08-31T10:05:22;94025.53;;;16.35;91.22
21588;BME280;10956;48.878;13.316;2023-08-31T10:07:50;94036.88;;;16.18;92.69
21588;BME280;10956;48.878;13.316;2023-08-31T10:10:16;94037.97;;;16.17;93.08
21588;BME280;10956;48.878;13.316;2023-08-31T10:12:42;94027.03;;;16.19;92.90
21588;BME280;10956;48.878;13.316;2023-08-31T10:15:09;94035.00;;;16.50;93.41
21588;BME280;10956;48.878;13.316;2023-08-31T10:17:36;94034.50;;;16.70;94.26
21588;BME280;10956;48.878;13.316;2023-08-31T10:20:02;94036.94;;;16.97;93.41
21588;BME280;10956;48.878;13.316;2023-08-31T10:22:28;94034.50;;;17.35;91.77
21588;BME280;10956;48.878;13.316;2023-08-31T10:24:57;94036.44;;;17.69;90.79
21588;BME280;10956;48.878;13.316;2023-08-31T10:27:25;94020.44;;;17.87;90.77
21588;BME280;10956;48.878;13.316;2023-08-31T10:29:50;94035.63;;;18.21;89.48
21588;BME280;10956;48.878;13.316;2023-08-31T10:32:19;94040.91;;;18.47;87.89
21588;BME280;10956;48.878;13.316;2023-08-31T10:35:07;94035.22;;;18.57;85.80
21588;BME280;10956;48.878;13.316;2023-08-31T10:37:33;94036.31;;;18.56;82.74
21588;BME280;10956;48.878;13.316;2023-08-31T10:40:08;94040.44;;;18.45;83.76
21588;BME280;10956;48.878;13.316;2023-08-31T10:42:46;94040.81;;;18.17;85.27
21588;BME280;10956;48.878;13.316;2023-08-31T10:45:15;94032.19;;;17.94;86.51
21588;BME280;10956;48.878;13.316;2023-08-31T10:47:46;94038.44;;;17.64;85.10
21588;BME280;10956;48.878;13.316;2023-08-31T10:50:16;94027.63;;;17.60;85.72
21588;BME280;10956;48.878;13.316;2023-08-31T10:52:45;94026.41;;;17.66;82.51
21588;BME280;10956;48.878;13.316;2023-08-31T10:55:13;94028.59;;;17.99;83.09
21588;BME280;10956;48.878;13.316;2023-08-31T10:57:40;94038.91;;;18.18;81.80
21588;BME280;10956;48.878;13.316;2023-08-31T11:00:07;94038.22;;;18.47;82.44
21588;BME280;10956;48.878;13.316;2023-08-31T11:05:18;94042.06;;;18.84;81.02
21588;BME280;10956;48.878;13.316;2023-08-31T11:07:48;94032.34;;;18.79;80.12
21588;BME280;10956;48.878;13.316;2023-08-31T11:10:24;94032.38;;;18.70;78.89
21588;BME280;10956;48.878;13.316;2023-08-31T11:12:53;94021.56;;;18.67;77.93
21588;BME280;10956;48.878;13.316;2023-08-31T11:15:20;94024.47;;;18.83;78.22
21588;BME280;10956;48.878;13.316;2023-08-31T11:17:47;94006.09;;;18.81;81.10
21588;BME280;10956;48.878;13.316;2023-08-31T11:20:14;94010.94;;;18.88;81.34
21588;BME280;10956;48.878;13.316;2023-08-31T11:22:42;94021.41;;;19.01;81.35
21588;BME280;10956;48.878;13.316;2023-08-31T11:25:09;94020.94;;;18.99;82.05
21588;BME280;10956;48.878;13.316;2023-08-31T11:27:34;94026.31;;;18.91;81.73
21588;BME280;10956;48.878;13.316;2023-08-31T11:30:00;94032.09;;;18.63;80.08
21588;BME280;10956;48.878;13.316;2023-08-31T11:32:25;94041.09;;;18.24;79.05
21588;BME280;10956;48.878;13.316;2023-08-31T11:34:51;94046.00;;;17.96;80.76
21588;BME280;10956;48.878;13.316;2023-08-31T11:37:16;94042.72;;;17.91;82.21
21588;BME280;10956;48.878;13.316;2023-08-31T11:39:52;94048.03;;;17.91;82.10
21588;BME280;10956;48.878;13.316;2023-08-31T11:42:20;94044.75;;;18.02;81.22
21588;BME280;10956;48.878;13.316;2023-08-31T11:44:48;94045.84;;;18.10;80.72
21588;BME280;10956;48.878;13.316;2023-08-31T11:47:14;94046.00;;;18.05;81.59
21588;BME280;10956;48.878;13.316;2023-08-31T11:49:41;94041.75;;;18.04;83.29
21588;BME280;10956;48.878;13.316;2023-08-31T11:52:09;94042.50;;;18.30;82.97
21588;BME280;10956;48.878;13.316;2023-08-31T11:54:37;94040.44;;;18.45;82.92
21588;BME280;10956;48.878;13.316;2023-08-31T11:57:06;94037.63;;;18.32;81.71
21588;BME280;10956;48.878;13.316;2023-08-31T11:59:38;94027.31;;;18.14;82.21
21588;BME280;10956;48.878;13.316;2023-08-31T12:02:08;94040.06;;;17.91;83.59
21588;BME280;10956;48.878;13.316;2023-08-31T12:04:44;94039.91;;;17.79;84.75
21588;BME280;10956;48.878;13.316;2023-08-31T12:07:10;94039.59;;;17.71;84.97
21588;BME280;10956;48.878;13.316;2023-08-31T12:09:35;94045.84;;;17.75;86.57
21588;BME280;10956;48.878;13.316;2023-08-31T12:12:01;94036.59;;;17.82;86.65
21588;BME280;10956;48.878;13.316;2023-08-31T12:14:27;94039.25;;;17.64;84.84
21588;BME280;10956;48.878;13.316;2023-08-31T12:17:01;94040.63;;;17.44;87.55
21588;BME280;10956;48.878;13.316;2023-08-31T12:19:28;94038.09;;;17.31;88.00
21588;BME280;10956;48.878;13.316;2023-08-31T12:21:54;94040.28;;;17.20;88.29
21588;BME280;10956;48.878;13.316;2023-08-31T12:24:20;94032.44;;;17.15;88.80
21588;BME280;10956;48.878;13.316;2023-08-31T12:26:47;94037.59;;;17.11;90.21
21588;BME280;10956;48.878;13.316;2023-08-31T12:29:12;94033.50;;;17.05;89.45
21588;BME280;10956;48.878;13.316;2023-08-31T12:31:38;94047.91;;;17.04;91.24
21588;BME280;10956;48.878;13.316;2023-08-31T12:34:04;94044.50;;;17.13;90.39
21588;BME280;10956;48.878;13.316;2023-08-31T12:36:32;94039.16;;;17.13;88.57
21588;BME280;10956;48.878;13.316;2023-08-31T12:38:58;94040.41;;;17.06;89.18
21588;BME280;10956;48.878;13.316;2023-08-31T12:41:29;94048.53;;;17.01;89.50
21588;BME280;10956;48.878;13.316;2023-08-31T12:43:54;94044.31;;;17.00;89.39
21588;BME280;10956;48.878;13.316;2023-08-31T12:46:20;94039.94;;;17.04;88.14
21588;BME280;10956;48.878;13.316;2023-08-31T12:48:45;94034.00;;;17.07;90.91